
Distance (Route):
Temperature : 20.9°C
Humidity : 56.5%
Pressure : 0hPa| Receiver | Frames | First received | Last received |
|---|---|---|---|
| LZ4TU-5 | 158 | 2026-08-30 11:20:15 | 2026-08-30 12:56:25 |
| Receiver | Date | Latitude | Longitude | Direction | Speed | Altitude | Climb | Temperature | Humidity | Pressure | Voltage | Killtimer | Uptime | BKT | XDATA |
|---|---|---|---|---|---|---|---|---|---|---|---|---|---|---|---|
| LZ4TU-5 | 2026-08-30 12:56:25 | 44.19081 | 22.96140 | 330° | 7km/h | 1166m | -13.7m/s | 20.9°C | 56.5% | 0hPa | 0V | 00:00:00 | 00:00:00 | 00:00:00 | |
| LZ4TU-5 | 2026-08-30 12:56:21 | 44.19075 | 22.96143 | 338° | 7km/h | 1222m | -13.3m/s | 20.5°C | 56.5% | 0hPa | 0V | 00:00:00 | 00:00:00 | 00:00:00 | |
| LZ4TU-5 | 2026-08-30 12:56:16 | 44.19067 | 22.96150 | 332° | 5km/h | 1285m | -13.2m/s | 19.9°C | 57.6% | 0hPa | 0V | 00:00:00 | 00:00:00 | 00:00:00 | |
| LZ4TU-5 | 2026-08-30 12:56:11 | 44.19059 | 22.96155 | 343° | 7km/h | 1353m | -13.6m/s | 19.4°C | 57.0% | 0hPa | 0V | 00:00:00 | 00:00:00 | 00:00:00 | |
| LZ4TU-5 | 2026-08-30 12:56:06 | 44.19049 | 22.96158 | 10° | 9km/h | 1416m | -13.6m/s | 19.3°C | 55.1% | 0hPa | 0V | 00:00:00 | 00:00:00 | 00:00:00 | |
| LZ4TU-5 | 2026-08-30 12:56:01 | 44.19039 | 22.96151 | 42° | 9km/h | 1487m | -13.4m/s | 19.1°C | 53.6% | 0hPa | 0V | 00:00:00 | 00:00:00 | 00:00:00 | |
| LZ4TU-5 | 2026-08-30 12:55:57 | 44.19030 | 22.96139 | 46° | 11km/h | 1541m | -13.7m/s | 19.2°C | 52.7% | 0hPa | 0V | 00:00:00 | 00:00:00 | 00:00:00 | |
| LZ4TU-5 | 2026-08-30 12:55:53 | 44.19021 | 22.96127 | 40° | 11km/h | 1597m | -14.0m/s | 18.7°C | 54.5% | 0hPa | 0V | 00:00:00 | 00:00:00 | 00:00:00 | |
| LZ4TU-5 | 2026-08-30 12:55:48 | 44.19013 | 22.96118 | 45° | 9km/h | 1662m | -13.9m/s | 18.1°C | 57.1% | 0hPa | 0V | 00:00:00 | 00:00:00 | 00:00:00 | |
| LZ4TU-5 | 2026-08-30 12:55:43 | 44.19005 | 22.96109 | 49° | 5km/h | 1735m | -13.9m/s | 17.4°C | 59.0% | 0hPa | 0V | 00:00:00 | 00:00:00 | 00:00:00 | |
| LZ4TU-5 | 2026-08-30 12:55:38 | 44.19001 | 22.96100 | 52° | 5km/h | 1805m | -14.2m/s | 16.8°C | 60.9% | 0hPa | 0V | 00:00:00 | 00:00:00 | 00:00:00 | |
| LZ4TU-5 | 2026-08-30 12:55:33 | 44.18999 | 22.96094 | 45° | 5km/h | 1869m | -14.0m/s | 16.2°C | 62.1% | 0hPa | 0V | 00:00:00 | 00:00:00 | 00:00:00 | |
| LZ4TU-5 | 2026-08-30 12:55:29 | 44.18997 | 22.96091 | 62° | 4km/h | 1919m | -13.9m/s | 15.7°C | 63.4% | 0hPa | 0V | 00:00:00 | 00:00:00 | 00:00:00 | |
| LZ4TU-5 | 2026-08-30 12:55:25 | 44.18995 | 22.96088 | 0° | 0km/h | 1977m | -13.4m/s | 15.2°C | 64.3% | 0hPa | 0V | 00:00:00 | 00:00:00 | 00:00:00 | |
| LZ4TU-5 | 2026-08-30 12:55:20 | 44.18990 | 22.96088 | 355° | 5km/h | 2049m | -13.9m/s | 14.7°C | 64.7% | 0hPa | 0V | 00:00:00 | 00:00:00 | 00:00:00 | |
| LZ4TU-5 | 2026-08-30 12:55:16 | 44.18983 | 22.96088 | 11° | 7km/h | 2107m | -13.7m/s | 14.4°C | 64.7% | 0hPa | 0V | 00:00:00 | 00:00:00 | 00:00:00 | |
| LZ4TU-5 | 2026-08-30 12:55:11 | 44.18975 | 22.96082 | 68° | 5km/h | 2180m | -13.7m/s | 14.1°C | 64.6% | 0hPa | 0V | 00:00:00 | 00:00:00 | 00:00:00 | |
| LZ4TU-5 | 2026-08-30 12:55:07 | 44.18973 | 22.96073 | 109° | 9km/h | 2240m | -13.7m/s | 13.8°C | 66.8% | 0hPa | 0V | 00:00:00 | 00:00:00 | 00:00:00 | |
| LZ4TU-5 | 2026-08-30 12:55:02 | 44.18977 | 22.96056 | 127° | 13km/h | 2316m | -13.9m/s | 13.2°C | 70.1% | 0hPa | 0V | 00:00:00 | 00:00:00 | 00:00:00 | |
| LZ4TU-5 | 2026-08-30 12:54:58 | 44.18980 | 22.96043 | 121° | 13km/h | 2372m | -13.8m/s | 12.8°C | 71.9% | 0hPa | 0V | 00:00:00 | 00:00:00 | 00:00:00 | |
| LZ4TU-5 | 2026-08-30 12:54:53 | 44.18983 | 22.96029 | 119° | 11km/h | 2441m | -14.1m/s | 12.2°C | 74.1% | 0hPa | 0V | 00:00:00 | 00:00:00 | 00:00:00 | |
| LZ4TU-5 | 2026-08-30 12:54:48 | 44.18990 | 22.96009 | 116° | 13km/h | 2515m | -14.2m/s | 11.6°C | 74.7% | 0hPa | 0V | 00:00:00 | 00:00:00 | 00:00:00 | |
| LZ4TU-5 | 2026-08-30 12:54:40 | 44.19003 | 22.95971 | 102° | 13km/h | 2640m | -14.7m/s | 10.5°C | 80.9% | 0hPa | 0V | 00:00:00 | 00:00:00 | 00:00:00 | |
| LZ4TU-5 | 2026-08-30 12:54:35 | 44.19007 | 22.95949 | 95° | 15km/h | 2701m | -14.8m/s | 10.0°C | 81.8% | 0hPa | 0V | 00:00:00 | 00:00:00 | 00:00:00 | |
| LZ4TU-5 | 2026-08-30 12:54:30 | 44.19014 | 22.95918 | 97° | 16km/h | 2775m | -14.6m/s | 9.5°C | 86.7% | 0hPa | 0V | 00:00:00 | 00:00:00 | 00:00:00 | |
| LZ4TU-5 | 2026-08-30 12:54:26 | 44.19021 | 22.95898 | 97° | 16km/h | 2822m | -14.7m/s | 9.1°C | 82.1% | 0hPa | 0V | 00:00:00 | 00:00:00 | 00:00:00 | |
| LZ4TU-5 | 2026-08-30 12:54:21 | 44.19022 | 22.95869 | 87° | 16km/h | 2897m | -14.6m/s | 8.6°C | 74.8% | 0hPa | 0V | 00:00:00 | 00:00:00 | 00:00:00 | |
| LZ4TU-5 | 2026-08-30 12:54:16 | 44.19019 | 22.95838 | 79° | 18km/h | 2972m | -14.8m/s | 7.9°C | 78.3% | 0hPa | 0V | 00:00:00 | 00:00:00 | 00:00:00 | |
| LZ4TU-5 | 2026-08-30 12:54:11 | 44.19012 | 22.95803 | 70° | 20km/h | 3048m | -14.6m/s | 7.3°C | 79.2% | 0hPa | 0V | 00:00:00 | 00:00:00 | 00:00:00 | |
| LZ4TU-5 | 2026-08-30 12:54:06 | 44.19002 | 22.95770 | 63° | 20km/h | 3123m | -15.0m/s | 6.7°C | 80.4% | 0hPa | 0V | 00:00:00 | 00:00:00 | 00:00:00 | |
| LZ4TU-5 | 2026-08-30 12:54:01 | 44.18990 | 22.95742 | 55° | 22km/h | 3183m | -14.9m/s | 6.2°C | 81.0% | 0hPa | 0V | 00:00:00 | 00:00:00 | 00:00:00 | |
| LZ4TU-5 | 2026-08-30 12:53:56 | 44.18973 | 22.95710 | 55° | 24km/h | 3258m | -14.9m/s | 5.6°C | 71.8% | 0hPa | 0V | 00:00:00 | 00:00:00 | 00:00:00 | |
| LZ4TU-5 | 2026-08-30 12:53:52 | 44.18957 | 22.95682 | 55° | 26km/h | 3320m | -15.2m/s | 5.1°C | 72.7% | 0hPa | 0V | 00:00:00 | 00:00:00 | 00:00:00 | |
| LZ4TU-5 | 2026-08-30 12:53:47 | 44.18938 | 22.95645 | 59° | 24km/h | 3400m | -15.0m/s | 4.6°C | 69.1% | 0hPa | 0V | 00:00:00 | 00:00:00 | 00:00:00 | |
| LZ4TU-5 | 2026-08-30 12:53:42 | 44.18922 | 22.95613 | 54° | 18km/h | 3479m | -15.0m/s | 4.1°C | 57.7% | 0hPa | 0V | 00:00:00 | 00:00:00 | 00:00:00 | |
| LZ4TU-5 | 2026-08-30 12:53:37 | 44.18906 | 22.95591 | 43° | 18km/h | 3558m | -15.3m/s | 3.7°C | 59.9% | 0hPa | 0V | 00:00:00 | 00:00:00 | 00:00:00 | |
| LZ4TU-5 | 2026-08-30 12:53:32 | 44.18891 | 22.95564 | 56° | 20km/h | 3634m | -15.2m/s | 3.2°C | 54.4% | 0hPa | 0V | 00:00:00 | 00:00:00 | 00:00:00 | |
| LZ4TU-5 | 2026-08-30 12:53:28 | 44.18882 | 22.95542 | 72° | 20km/h | 3692m | -14.9m/s | 3.4°C | 25.9% | 0hPa | 0V | 00:00:00 | 00:00:00 | 00:00:00 | |
| LZ4TU-5 | 2026-08-30 12:53:23 | 44.18874 | 22.95504 | 82° | 24km/h | 3771m | -15.1m/s | 3.0°C | 18.2% | 0hPa | 0V | 00:00:00 | 00:00:00 | 00:00:00 | |
| LZ4TU-5 | 2026-08-30 12:53:18 | 44.18870 | 22.95459 | 87° | 26km/h | 3851m | -14.5m/s | 2.6°C | 22.4% | 0hPa | 0V | 00:00:00 | 00:00:00 | 00:00:00 | |
| LZ4TU-5 | 2026-08-30 12:53:13 | 44.18866 | 22.95407 | 86° | 29km/h | 3929m | -14.8m/s | 3.1°C | 11.6% | 0hPa | 0V | 00:00:00 | 00:00:00 | 00:00:00 | |
| LZ4TU-5 | 2026-08-30 12:53:08 | 44.18864 | 22.95354 | 87° | 31km/h | 4001m | -14.8m/s | 2.7°C | 17.9% | 0hPa | 0V | 00:00:00 | 00:00:00 | 00:00:00 | |
| LZ4TU-5 | 2026-08-30 12:53:03 | 44.18863 | 22.95301 | 95° | 33km/h | 4078m | -15.0m/s | 2.5°C | 23.6% | 0hPa | 0V | 00:00:00 | 00:00:00 | 00:00:00 | |
| LZ4TU-5 | 2026-08-30 12:52:58 | 44.18870 | 22.95247 | 106° | 31km/h | 4150m | -14.7m/s | 1.8°C | 25.4% | 0hPa | 0V | 00:00:00 | 00:00:00 | 00:00:00 | |
| LZ4TU-5 | 2026-08-30 12:52:54 | 44.18880 | 22.95204 | 114° | 33km/h | 4211m | -14.8m/s | 1.4°C | 27.1% | 0hPa | 0V | 00:00:00 | 00:00:00 | 00:00:00 | |
| LZ4TU-5 | 2026-08-30 12:52:49 | 44.18896 | 22.95145 | 111° | 37km/h | 4289m | -15.2m/s | 1.1°C | 27.0% | 0hPa | 0V | 00:00:00 | 00:00:00 | 00:00:00 | |
| LZ4TU-5 | 2026-08-30 12:52:44 | 44.18910 | 22.95083 | 102° | 40km/h | 4363m | -15.3m/s | 1.0°C | 22.2% | 0hPa | 0V | 00:00:00 | 00:00:00 | 00:00:00 | |
| LZ4TU-5 | 2026-08-30 12:52:40 | 44.18919 | 22.95033 | 100° | 40km/h | 4414m | -14.8m/s | 0.5°C | 27.1% | 0hPa | 0V | 00:00:00 | 00:00:00 | 00:00:00 | |
| LZ4TU-5 | 2026-08-30 12:52:35 | 44.18928 | 22.94965 | 102° | 38km/h | 4492m | -15.9m/s | 0.1°C | 25.4% | 0hPa | 0V | 00:00:00 | 00:00:00 | 00:00:00 | |
| LZ4TU-5 | 2026-08-30 12:52:30 | 44.18941 | 22.94900 | 111° | 38km/h | 4572m | -14.9m/s | 0.4°C | 24.7% | 0hPa | 0V | 00:00:00 | 00:00:00 | 00:00:00 | |
| LZ4TU-5 | 2026-08-30 12:52:25 | 44.18957 | 22.94835 | 112° | 37km/h | 4650m | -15.3m/s | 0.7°C | 19.9% | 0hPa | 0V | 00:00:00 | 00:00:00 | 00:00:00 | |
| LZ4TU-5 | 2026-08-30 12:52:21 | 44.18971 | 22.94787 | 114° | 37km/h | 4713m | -15.5m/s | 0.3°C | 23.9% | 0hPa | 0V | 00:00:00 | 00:00:00 | 00:00:00 | |
| LZ4TU-5 | 2026-08-30 12:52:17 | 44.18986 | 22.94743 | 116° | 35km/h | 4776m | -15.9m/s | -0.1°C | 21.0% | 0hPa | 0V | 00:00:00 | 00:00:00 | 00:00:00 | |
| LZ4TU-5 | 2026-08-30 12:52:12 | 44.19004 | 22.94690 | 119° | 35km/h | 4852m | -15.7m/s | -0.7°C | 19.1% | 0hPa | 0V | 00:00:00 | 00:00:00 | 00:00:00 | |
| LZ4TU-5 | 2026-08-30 12:52:08 | 44.19022 | 22.94646 | 125° | 35km/h | 4917m | -15.9m/s | -1.2°C | 18.3% | 0hPa | 0V | 00:00:00 | 00:00:00 | 00:00:00 | |
| LZ4TU-5 | 2026-08-30 12:52:03 | 44.19048 | 22.94597 | 127° | 35km/h | 4998m | -16.1m/s | -1.7°C | 20.4% | 0hPa | 0V | 00:00:00 | 00:00:00 | 00:00:00 | |
| LZ4TU-5 | 2026-08-30 12:49:59 | 44.19638 | 22.93210 | 117° | 40km/h | 7076m | -17.6m/s | -17.3°C | 65.9% | 0hPa | 0V | 00:00:00 | 00:00:00 | 00:00:00 | |
| LZ4TU-5 | 2026-08-30 12:49:54 | 44.19658 | 22.93145 | 114° | 40km/h | 7167m | -17.7m/s | -17.8°C | 62.8% | 0hPa | 0V | 00:00:00 | 00:00:00 | 00:00:00 | |
| LZ4TU-5 | 2026-08-30 12:47:51 | 44.20157 | 22.91145 | 106° | 47km/h | 9498m | -20.1m/s | -34.6°C | 46.5% | 0hPa | 0V | 00:00:00 | 00:00:00 | 00:00:00 | |
| LZ4TU-5 | 2026-08-30 12:47:46 | 44.20171 | 22.91063 | 103° | 47km/h | 9600m | -20.3m/s | -35.3°C | 45.7% | 0hPa | 0V | 00:00:00 | 00:00:00 | 00:00:00 | |
| LZ4TU-5 | 2026-08-30 12:45:26 | 44.20631 | 22.88523 | 101° | 44km/h | 12794m | -24.0m/s | -56.7°C | 8.9% | 0hPa | 0V | 00:00:00 | 00:00:00 | 00:00:00 | |
| LZ4TU-5 | 2026-08-30 12:45:20 | 44.20644 | 22.88447 | 106° | 46km/h | 12913m | -24.4m/s | -57.4°C | 7.6% | 0hPa | 0V | 00:00:00 | 00:00:00 | 00:00:00 | |
| LZ4TU-5 | 2026-08-30 12:43:20 | 44.21019 | 22.86710 | 102° | 44km/h | 16194m | -31.4m/s | -57.4°C | 0.0% | 0hPa | 0V | 00:00:00 | 00:00:00 | 00:00:00 | |
| LZ4TU-5 | 2026-08-30 12:43:15 | 44.21032 | 22.86639 | 110° | 33km/h | 16357m | -31.8m/s | -57.3°C | 0.0% | 0hPa | 0V | 00:00:00 | 00:00:00 | 00:00:00 | |
| LZ4TU-5 | 2026-08-30 12:40:44 | 44.20907 | 22.86372 | 319° | 5km/h | 22339m | -51.3m/s | -52.9°C | 0.0% | 0hPa | 0V | 00:00:00 | 00:00:00 | 00:00:00 | |
| LZ4TU-5 | 2026-08-30 12:38:36 | 44.20699 | 22.86400 | 360° | 29km/h | 31384m | 5.8m/s | -39.4°C | 0.0% | 0hPa | 0V | 00:00:00 | 00:00:00 | 00:00:00 | |
| LZ4TU-5 | 2026-08-30 12:38:31 | 44.20663 | 22.86402 | 1° | 27km/h | 31355m | 5.8m/s | -39.5°C | 0.0% | 0hPa | 0V | 00:00:00 | 00:00:00 | 00:00:00 | |
| LZ4TU-5 | 2026-08-30 12:36:11 | 44.19957 | 22.86574 | 318° | 22km/h | 30336m | 7.2m/s | -39.8°C | 0.0% | 0hPa | 0V | 00:00:00 | 00:00:00 | 00:00:00 | |
| LZ4TU-5 | 2026-08-30 12:36:06 | 44.19925 | 22.86606 | 335° | 44km/h | 30300m | 7.6m/s | -39.6°C | 0.0% | 0hPa | 0V | 00:00:00 | 00:00:00 | 00:00:00 | |
| LZ4TU-5 | 2026-08-30 12:34:04 | 44.19659 | 22.86668 | 352° | 18km/h | 29398m | 6.8m/s | -42.9°C | 0.0% | 0hPa | 0V | 00:00:00 | 00:00:00 | 00:00:00 | |
| LZ4TU-5 | 2026-08-30 12:33:58 | 44.19636 | 22.86684 | 335° | 22km/h | 29362m | 6.6m/s | -42.6°C | 0.0% | 0hPa | 0V | 00:00:00 | 00:00:00 | 00:00:00 | |
| LZ4TU-5 | 2026-08-30 12:32:05 | 44.19266 | 22.86757 | 0° | 0km/h | 28537m | 6.9m/s | -43.5°C | 0.0% | 0hPa | 0V | 00:00:00 | 00:00:00 | 00:00:00 | |
| LZ4TU-5 | 2026-08-30 12:30:16 | 44.18896 | 22.86618 | 25° | 15km/h | 27772m | 7.6m/s | -46.2°C | 0.0% | 0hPa | 0V | 00:00:00 | 00:00:00 | 00:00:00 | |
| LZ4TU-5 | 2026-08-30 12:30:12 | 44.18898 | 22.86600 | 176° | 20km/h | 27740m | 7.6m/s | -46.1°C | 0% | 0hPa | 0V | 00:00:00 | 00:00:00 | 00:00:00 | |
| LZ4TU-5 | 2026-08-30 12:27:53 | 44.18623 | 22.86493 | 170° | 5km/h | 26771m | 8.8m/s | -48.4°C | 0.0% | 0hPa | 0V | 00:00:00 | 00:00:00 | 00:00:00 | |
| LZ4TU-5 | 2026-08-30 12:27:48 | 44.18643 | 22.86495 | 173° | 13km/h | 26736m | 4.4m/s | -48.2°C | 0.0% | 0hPa | 0V | 00:00:00 | 00:00:00 | 00:00:00 | |
| LZ4TU-5 | 2026-08-30 12:25:53 | 44.18481 | 22.86108 | 315° | 24km/h | 25916m | 5.2m/s | -49.5°C | 0.0% | 0hPa | 0V | 00:00:00 | 00:00:00 | 00:00:00 | |
| LZ4TU-5 | 2026-08-30 12:25:48 | 44.18476 | 22.86143 | 0° | 0km/h | 25881m | 8.7m/s | -49.1°C | 0% | 0hPa | 0V | 00:00:00 | 00:00:00 | 00:00:00 | |
| LZ4TU-5 | 2026-08-30 12:23:38 | 44.18280 | 22.86362 | 359° | 7km/h | 24996m | 5.3m/s | -50.1°C | 0.0% | 0hPa | 0V | 00:00:00 | 00:00:00 | 00:00:00 | |
| LZ4TU-5 | 2026-08-30 12:23:33 | 44.18273 | 22.86354 | 348° | 7km/h | 24966m | 7.9m/s | -50.3°C | 0.0% | 0hPa | 0V | 00:00:00 | 00:00:00 | 00:00:00 | |
| LZ4TU-5 | 2026-08-30 12:21:45 | 44.18008 | 22.86620 | 196° | 16km/h | 24207m | 7.4m/s | -51.6°C | 0.0% | 0hPa | 0V | 00:00:00 | 00:00:00 | 00:00:00 | |
| LZ4TU-5 | 2026-08-30 12:21:40 | 44.18006 | 22.86612 | 8° | 15km/h | 24173m | 7.3m/s | -51.6°C | 0% | 0hPa | 0V | 00:00:00 | 00:00:00 | 00:00:00 | |
| LZ4TU-5 | 2026-08-30 12:19:53 | 44.17831 | 22.86798 | 267° | 26km/h | 23470m | 4.9m/s | -52.6°C | 0.0% | 0hPa | 0V | 00:00:00 | 00:00:00 | 00:00:00 | |
| LZ4TU-5 | 2026-08-30 12:19:49 | 44.17838 | 22.86822 | 226° | 9km/h | 23436m | 8.9m/s | -52.5°C | 0.0% | 0hPa | 0V | 00:00:00 | 00:00:00 | 00:00:00 | |
| LZ4TU-5 | 2026-08-30 12:17:59 | 44.17686 | 22.87082 | 261° | 22km/h | 22712m | 5.6m/s | -53.0°C | 0.0% | 0hPa | 0V | 00:00:00 | 00:00:00 | 00:00:00 | |
| LZ4TU-5 | 2026-08-30 12:17:54 | 44.17684 | 22.87122 | 295° | 20km/h | 22678m | 6.0m/s | -52.9°C | 0.0% | 0hPa | 0V | 00:00:00 | 00:00:00 | 00:00:00 | |
| LZ4TU-5 | 2026-08-30 12:16:05 | 44.17640 | 22.87249 | 15° | 13km/h | 21947m | 6.4m/s | -53.4°C | 0.0% | 0hPa | 0V | 00:00:00 | 00:00:00 | 00:00:00 | |
| LZ4TU-5 | 2026-08-30 12:16:00 | 44.17607 | 22.87251 | 11° | 22km/h | 21914m | 4.9m/s | -53.4°C | 0.0% | 0hPa | 0V | 00:00:00 | 00:00:00 | 00:00:00 | |
| LZ4TU-5 | 2026-08-30 12:14:10 | 44.17611 | 22.87507 | 276° | 20km/h | 21195m | 6.4m/s | -54.7°C | 0.0% | 0hPa | 0V | 00:00:00 | 00:00:00 | 00:00:00 | |
| LZ4TU-5 | 2026-08-30 12:14:05 | 44.17610 | 22.87500 | 96° | 29km/h | 21165m | 6.6m/s | -55.2°C | 0.0% | 0hPa | 0V | 00:00:00 | 00:00:00 | 00:00:00 | |
| LZ4TU-5 | 2026-08-30 12:12:21 | 44.17528 | 22.87440 | 355° | 20km/h | 20508m | 6.2m/s | -55.4°C | 0.0% | 0hPa | 0V | 00:00:00 | 00:00:00 | 00:00:00 | |
| LZ4TU-5 | 2026-08-30 12:12:16 | 44.17498 | 22.87433 | 20° | 22km/h | 20476m | 6.6m/s | -55.5°C | 0.0% | 0hPa | 0V | 00:00:00 | 00:00:00 | 00:00:00 | |
| LZ4TU-5 | 2026-08-30 12:10:32 | 44.17117 | 22.87585 | 69° | 40km/h | 19816m | 5.6m/s | -54.8°C | 0.0% | 0hPa | 0V | 00:00:00 | 00:00:00 | 00:00:00 | |
| LZ4TU-5 | 2026-08-30 12:10:27 | 44.17091 | 22.87547 | 336° | 26km/h | 19787m | 9.3m/s | -54.9°C | 0.0% | 0hPa | 0V | 00:00:00 | 00:00:00 | 00:00:00 | |
| LZ4TU-5 | 2026-08-30 12:08:45 | 44.16766 | 22.87465 | 17° | 16km/h | 19162m | 6.4m/s | -55.9°C | 0.0% | 0hPa | 0V | 00:00:00 | 00:00:00 | 00:00:00 | |
| LZ4TU-5 | 2026-08-30 12:08:40 | 44.16759 | 22.87449 | 112° | 4km/h | 19131m | 6.9m/s | -56.0°C | 0.0% | 0hPa | 0V | 00:00:00 | 00:00:00 | 00:00:00 | |
| LZ4TU-5 | 2026-08-30 12:07:00 | 44.16552 | 22.87249 | 24° | 15km/h | 18529m | 5.2m/s | -55.6°C | 0.0% | 0hPa | 0V | 00:00:00 | 00:00:00 | 00:00:00 | |
| LZ4TU-5 | 2026-08-30 12:06:56 | 44.16550 | 22.87256 | 246° | 16km/h | 18502m | 5.7m/s | -55.6°C | 0.0% | 0hPa | 0V | 00:00:00 | 00:00:00 | 00:00:00 | |
| LZ4TU-5 | 2026-08-30 12:05:13 | 44.16622 | 22.87060 | 124° | 24km/h | 17844m | 7.3m/s | -57.3°C | 0.0% | 0hPa | 0V | 00:00:00 | 00:00:00 | 00:00:00 | |
| LZ4TU-5 | 2026-08-30 12:05:08 | 44.16654 | 22.87038 | 149° | 26km/h | 17807m | 4.8m/s | -57.2°C | 0.0% | 0hPa | 0V | 00:00:00 | 00:00:00 | 00:00:00 | |
| LZ4TU-5 | 2026-08-30 12:03:23 | 44.16540 | 22.86433 | 352° | 29km/h | 17211m | 4.3m/s | -59.6°C | 0.0% | 0hPa | 0V | 00:00:00 | 00:00:00 | 00:00:00 | |
| LZ4TU-5 | 2026-08-30 12:03:18 | 44.16527 | 22.86424 | 68° | 5km/h | 17185m | 4.3m/s | -59.6°C | 0.0% | 0hPa | 0V | 00:00:00 | 00:00:00 | 00:00:00 | |
| LZ4TU-5 | 2026-08-30 12:03:13 | 44.16499 | 22.86452 | 329° | 44km/h | 17154m | 4.1m/s | -59.5°C | 0.0% | 0hPa | 0V | 00:00:00 | 00:00:00 | 00:00:00 | |
| LZ4TU-5 | 2026-08-30 12:01:30 | 44.16707 | 22.86509 | 135° | 38km/h | 16490m | 4.8m/s | -57.0°C | 0.0% | 0hPa | 0V | 00:00:00 | 00:00:00 | 00:00:00 | |
| LZ4TU-5 | 2026-08-30 12:01:26 | 44.16726 | 22.86469 | 114° | 20km/h | 16460m | 5.2m/s | -57.1°C | 0.0% | 0hPa | 0V | 00:00:00 | 00:00:00 | 00:00:00 | |
| LZ4TU-5 | 2026-08-30 11:59:26 | 44.16888 | 22.84740 | 100° | 42km/h | 15709m | 5.0m/s | -58.0°C | 0.5% | 0hPa | 0V | 00:00:00 | 00:00:00 | 00:00:00 | |
| LZ4TU-5 | 2026-08-30 11:59:21 | 44.16887 | 22.84649 | 90° | 55km/h | 15676m | 7.5m/s | -58.2°C | 0.9% | 0hPa | 0V | 00:00:00 | 00:00:00 | 00:00:00 | |
| LZ4TU-5 | 2026-08-30 11:57:38 | 44.16991 | 22.83611 | 100° | 42km/h | 15045m | 7.7m/s | -58.2°C | 3.3% | 0hPa | 0V | 00:00:00 | 00:00:00 | 00:00:00 | |
| LZ4TU-5 | 2026-08-30 11:57:34 | 44.17010 | 22.83553 | 132° | 49km/h | 15020m | 5.6m/s | -58.1°C | 3.4% | 0hPa | 0V | 00:00:00 | 00:00:00 | 00:00:00 | |
| LZ4TU-5 | 2026-08-30 11:55:52 | 44.17326 | 22.82122 | 127° | 40km/h | 14407m | 5.0m/s | -57.7°C | 8.4% | 0hPa | 0V | 00:00:00 | 00:00:00 | 00:00:00 | |
| LZ4TU-5 | 2026-08-30 11:55:47 | 44.17348 | 22.82051 | 109° | 46km/h | 14380m | 3.8m/s | -57.7°C | 8.6% | 0hPa | 0V | 00:00:00 | 00:00:00 | 00:00:00 | |
| LZ4TU-5 | 2026-08-30 11:54:03 | 44.17921 | 22.80346 | 113° | 64km/h | 13708m | 4.8m/s | -58.9°C | 12.7% | 0hPa | 0V | 00:00:00 | 00:00:00 | 00:00:00 | |
| LZ4TU-5 | 2026-08-30 11:53:58 | 44.17950 | 22.80266 | 118° | 46km/h | 13676m | 3.8m/s | -58.6°C | 0% | 0hPa | 0V | 00:00:00 | 00:00:00 | 00:00:00 | |
| LZ4TU-5 | 2026-08-30 11:52:15 | 44.18376 | 22.78558 | 119° | 35km/h | 13048m | 5.7m/s | -56.9°C | 19.5% | 0hPa | 0V | 00:00:00 | 00:00:00 | 00:00:00 | |
| LZ4TU-5 | 2026-08-30 11:52:10 | 44.18393 | 22.78494 | 104° | 47km/h | 13017m | 6.9m/s | -56.9°C | 19.6% | 0hPa | 0V | 00:00:00 | 00:00:00 | 00:00:00 | |
| LZ4TU-5 | 2026-08-30 11:50:30 | 44.18749 | 22.77003 | 121° | 60km/h | 12421m | 7.2m/s | -55.9°C | 27.8% | 0hPa | 0V | 00:00:00 | 00:00:00 | 00:00:00 | |
| LZ4TU-5 | 2026-08-30 11:50:26 | 44.18776 | 22.76927 | 113° | 51km/h | 12393m | 7.4m/s | -55.9°C | 28.4% | 0hPa | 0V | 00:00:00 | 00:00:00 | 00:00:00 | |
| LZ4TU-5 | 2026-08-30 11:50:21 | 44.18793 | 22.76854 | 104° | 49km/h | 12364m | 7.0m/s | -55.9°C | 28.9% | 0hPa | 0V | 00:00:00 | 00:00:00 | 00:00:00 | |
| LZ4TU-5 | 2026-08-30 11:50:16 | 44.18813 | 22.76752 | 121° | 58km/h | 12336m | 5.5m/s | -55.8°C | 29.5% | 0hPa | 0V | 00:00:00 | 00:00:00 | 00:00:00 | |
| LZ4TU-5 | 2026-08-30 11:47:56 | 44.19500 | 22.74061 | 125° | 66km/h | 11508m | 8.1m/s | -51.6°C | 40.2% | 0hPa | 0V | 00:00:00 | 00:00:00 | 00:00:00 | |
| LZ4TU-5 | 2026-08-30 11:47:51 | 44.19525 | 22.73979 | 97° | 49km/h | 11478m | 4.3m/s | -51.4°C | 41.4% | 0hPa | 0V | 00:00:00 | 00:00:00 | 00:00:00 | |
| LZ4TU-5 | 2026-08-30 11:46:13 | 44.19962 | 22.72113 | 119° | 38km/h | 10901m | 5.4m/s | -47.1°C | 48.5% | 0hPa | 0V | 00:00:00 | 00:00:00 | 00:00:00 | |
| LZ4TU-5 | 2026-08-30 11:46:09 | 44.19980 | 22.72012 | 106° | 66km/h | 10861m | 5.7m/s | -46.8°C | 48.9% | 0hPa | 0V | 00:00:00 | 00:00:00 | 00:00:00 | |
| LZ4TU-5 | 2026-08-30 11:44:30 | 44.20280 | 22.70439 | 122° | 40km/h | 10278m | 5.1m/s | -42.1°C | 45.4% | 0hPa | 0V | 00:00:00 | 00:00:00 | 00:00:00 | |
| LZ4TU-5 | 2026-08-30 11:44:26 | 44.20295 | 22.70368 | 94° | 51km/h | 10256m | 6.3m/s | -42.0°C | 45.1% | 0hPa | 0V | 00:00:00 | 00:00:00 | 00:00:00 | |
| LZ4TU-5 | 2026-08-30 11:42:46 | 44.20668 | 22.68954 | 100° | 44km/h | 9689m | 8.4m/s | -37.0°C | 37.9% | 0hPa | 0V | 00:00:00 | 00:00:00 | 00:00:00 | |
| LZ4TU-5 | 2026-08-30 11:42:41 | 44.20669 | 22.68874 | 97° | 42km/h | 9664m | 5.2m/s | -36.9°C | 39.6% | 0hPa | 0V | 00:00:00 | 00:00:00 | 00:00:00 | |
| LZ4TU-5 | 2026-08-30 11:41:04 | 44.21151 | 22.67256 | 129° | 71km/h | 9112m | 3.2m/s | -32.5°C | 42.3% | 0hPa | 0V | 00:00:00 | 00:00:00 | 00:00:00 | |
| LZ4TU-5 | 2026-08-30 11:41:00 | 44.21174 | 22.67197 | 90° | 26km/h | 9089m | 7.2m/s | -32.4°C | 0% | 0hPa | 0V | 00:00:00 | 00:00:00 | 00:00:00 | |
| LZ4TU-5 | 2026-08-30 11:39:16 | 44.21544 | 22.65499 | 138° | 66km/h | 8498m | 5.6m/s | -27.0°C | 35.3% | 0hPa | 0V | 00:00:00 | 00:00:00 | 00:00:00 | |
| LZ4TU-5 | 2026-08-30 11:37:41 | 44.22068 | 22.63966 | 132° | 66km/h | 7963m | 5.2m/s | -22.7°C | 9.9% | 0hPa | 0V | 00:00:00 | 00:00:00 | 00:00:00 | |
| LZ4TU-5 | 2026-08-30 11:37:36 | 44.22095 | 22.63895 | 98° | 38km/h | 7937m | 5.2m/s | -22.5°C | 11.6% | 0hPa | 0V | 00:00:00 | 00:00:00 | 00:00:00 | |
| LZ4TU-5 | 2026-08-30 11:35:59 | 44.22366 | 22.62494 | 116° | 73km/h | 7384m | 5.5m/s | -19.4°C | 43.1% | 0hPa | 0V | 00:00:00 | 00:00:00 | 00:00:00 | |
| LZ4TU-5 | 2026-08-30 11:35:54 | 44.22383 | 22.62414 | 74° | 31km/h | 7349m | 8.3m/s | -19.1°C | 42.3% | 0hPa | 0V | 00:00:00 | 00:00:00 | 00:00:00 | |
| LZ4TU-5 | 2026-08-30 11:34:23 | 44.22722 | 22.61082 | 85° | 66km/h | 6814m | 4.3m/s | -15.8°C | 49.1% | 0hPa | 0V | 00:00:00 | 00:00:00 | 00:00:00 | |
| LZ4TU-5 | 2026-08-30 11:34:18 | 44.22738 | 22.61013 | 154° | 35km/h | 6783m | 5.9m/s | -15.5°C | 49.5% | 0hPa | 0V | 00:00:00 | 00:00:00 | 00:00:00 | |
| LZ4TU-5 | 2026-08-30 11:32:55 | 44.23067 | 22.59993 | 93° | 27km/h | 6283m | 5.5m/s | -11.7°C | 45.5% | 0hPa | 0V | 00:00:00 | 00:00:00 | 00:00:00 | |
| LZ4TU-5 | 2026-08-30 11:32:51 | 44.23064 | 22.59947 | 87° | 29km/h | 6265m | 5.8m/s | -11.7°C | 45.5% | 0hPa | 0V | 00:00:00 | 00:00:00 | 00:00:00 | |
| LZ4TU-5 | 2026-08-30 11:31:38 | 44.23394 | 22.59186 | 149° | 26km/h | 5856m | 6.0m/s | -8.6°C | 41.6% | 0hPa | 0V | 00:00:00 | 00:00:00 | 00:00:00 | |
| LZ4TU-5 | 2026-08-30 11:31:34 | 44.23434 | 22.59144 | 144° | 60km/h | 5833m | 5.8m/s | -8.6°C | 44.8% | 0hPa | 0V | 00:00:00 | 00:00:00 | 00:00:00 | |
| LZ4TU-5 | 2026-08-30 11:30:14 | 44.23847 | 22.58309 | 130° | 40km/h | 5373m | 6.0m/s | -5.2°C | 29.1% | 0hPa | 0V | 00:00:00 | 00:00:00 | 00:00:00 | |
| LZ4TU-5 | 2026-08-30 11:30:09 | 44.23884 | 22.58220 | 130° | 53km/h | 5347m | 4.6m/s | -4.9°C | 22.8% | 0hPa | 0V | 00:00:00 | 00:00:00 | 00:00:00 | |
| LZ4TU-5 | 2026-08-30 11:28:55 | 44.24261 | 22.57480 | 124° | 49km/h | 4925m | 6.3m/s | -1.8°C | 18.6% | 0hPa | 0V | 00:00:00 | 00:00:00 | 00:00:00 | |
| LZ4TU-5 | 2026-08-30 11:28:51 | 44.24280 | 22.57435 | 157° | 16km/h | 4894m | 5.5m/s | -1.5°C | 17.9% | 0hPa | 0V | 00:00:00 | 00:00:00 | 00:00:00 | |
| LZ4TU-5 | 2026-08-30 11:27:38 | 44.24529 | 22.56581 | 69° | 16km/h | 4479m | 5.6m/s | -0.5°C | 26.6% | 0hPa | 0V | 00:00:00 | 00:00:00 | 00:00:00 | |
| LZ4TU-5 | 2026-08-30 11:27:33 | 44.24545 | 22.56525 | 117° | 58km/h | 4450m | 4.5m/s | -0.5°C | 30.5% | 0hPa | 0V | 00:00:00 | 00:00:00 | 00:00:00 | |
| LZ4TU-5 | 2026-08-30 11:26:21 | 44.24703 | 22.55690 | 99° | 33km/h | 4028m | 6.1m/s | 2.3°C | 23.9% | 0hPa | 0V | 00:00:00 | 00:00:00 | 00:00:00 | |
| LZ4TU-5 | 2026-08-30 11:26:16 | 44.24708 | 22.55634 | 98° | 35km/h | 3998m | 6.5m/s | 2.5°C | 0% | 0hPa | 0V | 00:00:00 | 00:00:00 | 00:00:00 | |
| LZ4TU-5 | 2026-08-30 11:25:05 | 44.24622 | 22.54948 | 73° | 35km/h | 3599m | 3.8m/s | 3.6°C | 26.2% | 0hPa | 0V | 00:00:00 | 00:00:00 | 00:00:00 | |
| LZ4TU-5 | 2026-08-30 11:25:01 | 44.24614 | 22.54932 | 299° | 5km/h | 3568m | 6.5m/s | 3.6°C | 34.4% | 0hPa | 0V | 00:00:00 | 00:00:00 | 00:00:00 | |
| LZ4TU-5 | 2026-08-30 11:23:53 | 44.24391 | 22.54606 | 30° | 16km/h | 3189m | 6.3m/s | 5.6°C | 67.7% | 0hPa | 0V | 00:00:00 | 00:00:00 | 00:00:00 | |
| LZ4TU-5 | 2026-08-30 11:23:49 | 44.24372 | 22.54576 | 43° | 22km/h | 3160m | 4.4m/s | 5.9°C | 0% | 0hPa | 0V | 00:00:00 | 00:00:00 | 00:00:00 | |
| LZ4TU-5 | 2026-08-30 11:22:42 | 44.24191 | 22.54115 | 88° | 27km/h | 2774m | 5.8m/s | 9.0°C | 68.1% | 0hPa | 0V | 00:00:00 | 00:00:00 | 00:00:00 | |
| LZ4TU-5 | 2026-08-30 11:22:38 | 44.24177 | 22.54079 | 55° | 22km/h | 2752m | 5.9m/s | 9.2°C | 67.5% | 0hPa | 0V | 00:00:00 | 00:00:00 | 00:00:00 | |
| LZ4TU-5 | 2026-08-30 11:21:31 | 44.24145 | 22.53696 | 104° | 18km/h | 2364m | 4.9m/s | 11.7°C | 72.1% | 0hPa | 0V | 00:00:00 | 00:00:00 | 00:00:00 | |
| LZ4TU-5 | 2026-08-30 11:21:27 | 44.24145 | 22.53681 | 0° | 0km/h | 2341m | 5.9m/s | 11.9°C | 71.6% | 0hPa | 0V | 00:00:00 | 00:00:00 | 00:00:00 | |
| LZ4TU-5 | 2026-08-30 11:20:20 | 44.24182 | 22.53366 | 130° | 9km/h | 1953m | 5.6m/s | 15.1°C | 61.9% | 0hPa | 0V | 00:00:00 | 00:00:00 | 00:00:00 | |
| LZ4TU-5 | 2026-08-30 11:20:15 | 44.24190 | 22.53346 | 148° | 9km/h | 1925m | 6.0m/s | 15.1°C | 0% | 0hPa | 0V | 00:00:00 | 00:00:00 | 00:00:00 |